sensor_id;sensor_type;location;lat;lon;timestamp;P1;durP1;ratioP1;P2;durP2;ratioP2
66707;SDS011;53622;0.000;0.000;2023-03-20T00:02:30;0.52;;;0.40;;
66707;SDS011;53622;0.000;0.000;2023-03-20T00:04:59;0.65;;;0.43;;
66707;SDS011;53622;0.000;0.000;2023-03-20T00:07:29;2.60;;;0.55;;
66707;SDS011;53622;0.000;0.000;2023-03-20T00:09:58;2.05;;;0.30;;
66707;SDS011;53622;0.000;0.000;2023-03-20T00:12:29;2.25;;;0.50;;
66707;SDS011;53622;0.000;0.000;2023-03-20T00:14:59;1.27;;;0.40;;
66707;SDS011;53622;0.000;0.000;2023-03-20T00:17:32;0.20;;;0.20;;
66707;SDS011;53622;0.000;0.000;2023-03-20T00:20:02;0.60;;;0.40;;
66707;SDS011;53622;0.000;0.000;2023-03-20T00:22:32;0.90;;;0.40;;
66707;SDS011;53622;0.000;0.000;2023-03-20T00:25:01;0.68;;;0.28;;
66707;SDS011;53622;0.000;0.000;2023-03-20T00:27:33;1.25;;;0.50;;
66707;SDS011;53622;0.000;0.000;2023-03-20T00:30:04;0.65;;;0.30;;
66707;SDS011;53622;0.000;0.000;2023-03-20T00:32:41;0.30;;;0.30;;
66707;SDS011;53622;0.000;0.000;2023-03-20T00:35:14;0.25;;;0.25;;
66707;SDS011;53622;0.000;0.000;2023-03-20T00:37:47;0.93;;;0.38;;
66707;SDS011;53622;0.000;0.000;2023-03-20T00:40:17;0.57;;;0.40;;
66707;SDS011;53622;0.000;0.000;2023-03-20T00:42:49;1.02;;;0.40;;
66707;SDS011;53622;0.000;0.000;2023-03-20T00:45:20;0.55;;;0.30;;
66707;SDS011;53622;0.000;0.000;2023-03-20T00:47:49;0.38;;;0.30;;
66707;SDS011;53622;0.000;0.000;2023-03-20T00:50:21;1.25;;;0.20;;
66707;SDS011;53622;0.000;0.000;2023-03-20T00:52:52;0.35;;;0.30;;
66707;SDS011;53622;0.000;0.000;2023-03-20T00:55:22;0.82;;;0.45;;
66707;SDS011;53622;0.000;0.000;2023-03-20T00:57:56;1.55;;;0.40;;
66707;SDS011;53622;0.000;0.000;2023-03-20T01:00:33;0.20;;;0.20;;
66707;SDS011;53622;0.000;0.000;2023-03-20T01:03:10;0.38;;;0.30;;
66707;SDS011;53622;0.000;0.000;2023-03-20T01:05:42;0.82;;;0.40;;
66707;SDS011;53622;0.000;0.000;2023-03-20T01:08:12;0.85;;;0.50;;
66707;SDS011;53622;0.000;0.000;2023-03-20T01:10:43;0.22;;;0.20;;
66707;SDS011;53622;0.000;0.000;2023-03-20T01:13:19;0.50;;;0.30;;
66707;SDS011;53622;0.000;0.000;2023-03-20T01:15:51;1.95;;;0.40;;
66707;SDS011;53622;0.000;0.000;2023-03-20T01:18:21;1.08;;;0.22;;
66707;SDS011;53622;0.000;0.000;2023-03-20T01:20:52;1.33;;;0.40;;
66707;SDS011;53622;0.000;0.000;2023-03-20T01:23:21;0.85;;;0.30;;
66707;SDS011;53622;0.000;0.000;2023-03-20T01:25:53;0.25;;;0.20;;
66707;SDS011;53622;0.000;0.000;2023-03-20T01:28:23;0.65;;;0.40;;
66707;SDS011;53622;0.000;0.000;2023-03-20T01:30:53;2.15;;;0.30;;
66707;SDS011;53622;0.000;0.000;2023-03-20T01:33:22;1.65;;;0.38;;
66707;SDS011;53622;0.000;0.000;2023-03-20T01:35:54;0.60;;;0.55;;
66707;SDS011;53622;0.000;0.000;2023-03-20T01:38:26;1.05;;;0.20;;
66707;SDS011;53622;0.000;0.000;2023-03-20T01:40:58;0.73;;;0.38;;
66707;SDS011;53622;0.000;0.000;2023-03-20T01:43:33;0.65;;;0.35;;
66707;SDS011;53622;0.000;0.000;2023-03-20T01:46:03;0.30;;;0.30;;
66707;SDS011;53622;0.000;0.000;2023-03-20T01:52:02;0.20;;;0.20;;
66707;SDS011;53622;0.000;0.000;2023-03-20T01:54:32;1.27;;;0.20;;
66707;SDS011;53622;0.000;0.000;2023-03-20T01:57:09;0.70;;;0.22;;
66707;SDS011;53622;0.000;0.000;2023-03-20T01:59:44;0.35;;;0.30;;
66707;SDS011;53622;0.000;0.000;2023-03-20T02:02:16;0.40;;;0.17;;
66707;SDS011;53622;0.000;0.000;2023-03-20T02:04:51;0.52;;;0.30;;
66707;SDS011;53622;0.000;0.000;2023-03-20T02:07:24;0.38;;;0.20;;
66707;SDS011;53622;0.000;0.000;2023-03-20T02:09:59;1.65;;;0.40;;
66707;SDS011;53622;0.000;0.000;2023-03-20T02:12:38;0.30;;;0.30;;
66707;SDS011;53622;0.000;0.000;2023-03-20T02:15:14;0.75;;;0.20;;
66707;SDS011;53622;0.000;0.000;2023-03-20T02:18:03;0.52;;;0.30;;
66707;SDS011;53622;0.000;0.000;2023-03-20T02:20:36;0.98;;;0.30;;
66707;SDS011;53622;0.000;0.000;2023-03-20T02:23:29;0.90;;;0.40;;
66707;SDS011;53622;0.000;0.000;2023-03-20T02:26:30;0.77;;;0.30;;
66707;SDS011;53622;0.000;0.000;2023-03-20T02:29:37;0.35;;;0.30;;
66707;SDS011;53622;0.000;0.000;2023-03-20T02:35:58;0.40;;;0.32;;
66707;SDS011;53622;0.000;0.000;2023-03-20T02:38:53;0.40;;;0.40;;
66707;SDS011;53622;0.000;0.000;2023-03-20T02:41:42;0.57;;;0.25;;
66707;SDS011;53622;0.000;0.000;2023-03-20T02:44:20;0.25;;;0.20;;
66707;SDS011;53622;0.000;0.000;2023-03-20T02:46:59;1.00;;;0.30;;
66707;SDS011;53622;0.000;0.000;2023-03-20T02:49:44;0.30;;;0.30;;
66707;SDS011;53622;0.000;0.000;2023-03-20T02:52:25;0.40;;;0.30;;
66707;SDS011;53622;0.000;0.000;2023-03-20T02:55:05;0.13;;;0.13;;
66707;SDS011;53622;0.000;0.000;2023-03-20T02:57:44;1.30;;;0.30;;
66707;SDS011;53622;0.000;0.000;2023-03-20T03:00:21;0.25;;;0.25;;
66707;SDS011;53622;0.000;0.000;2023-03-20T03:02:57;0.30;;;0.30;;
66707;SDS011;53622;0.000;0.000;2023-03-20T03:05:34;0.25;;;0.20;;
66707;SDS011;53622;0.000;0.000;2023-03-20T03:08:06;0.25;;;0.25;;
66707;SDS011;53622;0.000;0.000;2023-03-20T03:10:42;0.15;;;0.15;;
66707;SDS011;53622;0.000;0.000;2023-03-20T03:13:16;0.30;;;0.22;;
66707;SDS011;53622;0.000;0.000;2023-03-20T03:15:53;0.10;;;0.10;;
66707;SDS011;53622;0.000;0.000;2023-03-20T03:18:29;0.20;;;0.20;;
66707;SDS011;53622;0.000;0.000;2023-03-20T03:21:02;0.80;;;0.20;;
66707;SDS011;53622;0.000;0.000;2023-03-20T03:23:39;0.20;;;0.20;;
66707;SDS011;53622;0.000;0.000;2023-03-20T03:26:13;0.80;;;0.30;;
66707;SDS011;53622;0.000;0.000;2023-03-20T03:28:47;0.55;;;0.20;;
66707;SDS011;53622;0.000;0.000;2023-03-20T03:31:21;0.20;;;0.17;;
66707;SDS011;53622;0.000;0.000;2023-03-20T03:33:52;0.10;;;0.10;;
66707;SDS011;53622;0.000;0.000;2023-03-20T03:36:26;0.50;;;0.20;;
66707;SDS011;53622;0.000;0.000;2023-03-20T03:39:06;0.20;;;0.20;;
66707;SDS011;53622;0.000;0.000;2023-03-20T03:41:44;0.22;;;0.20;;
66707;SDS011;53622;0.000;0.000;2023-03-20T03:44:20;0.32;;;0.22;;
66707;SDS011;53622;0.000;0.000;2023-03-20T03:46:55;0.65;;;0.20;;
66707;SDS011;53622;0.000;0.000;2023-03-20T03:49:28;0.25;;;0.25;;
66707;SDS011;53622;0.000;0.000;2023-03-20T03:52:01;0.20;;;0.20;;
66707;SDS011;53622;0.000;0.000;2023-03-20T03:54:33;0.20;;;0.20;;
66707;SDS011;53622;0.000;0.000;2023-03-20T03:57:28;0.30;;;0.30;;
66707;SDS011;53622;0.000;0.000;2023-03-20T04:00:03;0.20;;;0.20;;
66707;SDS011;53622;0.000;0.000;2023-03-20T04:02:40;0.13;;;0.13;;
66707;SDS011;53622;0.000;0.000;2023-03-20T04:05:11;1.58;;;0.30;;
66707;SDS011;53622;0.000;0.000;2023-03-20T04:07:43;0.15;;;0.15;;
66707;SDS011;53622;0.000;0.000;2023-03-20T04:10:13;0.17;;;0.17;;
66707;SDS011;53622;0.000;0.000;2023-03-20T04:12:44;0.20;;;0.20;;
66707;SDS011;53622;0.000;0.000;2023-03-20T04:15:14;0.25;;;0.20;;
66707;SDS011;53622;0.000;0.000;2023-03-20T04:17:44;0.60;;;0.40;;
66707;SDS011;53622;0.000;0.000;2023-03-20T04:20:15;0.38;;;0.20;;
66707;SDS011;53622;0.000;0.000;2023-03-20T04:22:46;0.13;;;0.13;;
66707;SDS011;53622;0.000;0.000;2023-03-20T04:25:17;0.22;;;0.20;;
66707;SDS011;53622;0.000;0.000;2023-03-20T04:27:50;0.30;;;0.25;;
66707;SDS011;53622;0.000;0.000;2023-03-20T04:30:50;0.28;;;0.20;;
66707;SDS011;53622;0.000;0.000;2023-03-20T04:33:43;0.40;;;0.20;;
66707;SDS011;53622;0.000;0.000;2023-03-20T04:36:42;0.43;;;0.30;;
66707;SDS011;53622;0.000;0.000;2023-03-20T04:39:13;0.45;;;0.30;;
66707;SDS011;53622;0.000;0.000;2023-03-20T04:41:44;0.55;;;0.20;;
66707;SDS011;53622;0.000;0.000;2023-03-20T04:44:15;0.40;;;0.20;;
66707;SDS011;53622;0.000;0.000;2023-03-20T04:46:45;0.35;;;0.20;;
66707;SDS011;53622;0.000;0.000;2023-03-20T04:49:15;0.55;;;0.20;;
66707;SDS011;53622;0.000;0.000;2023-03-20T04:51:45;0.20;;;0.20;;
66707;SDS011;53622;0.000;0.000;2023-03-20T04:54:18;0.43;;;0.20;;
66707;SDS011;53622;0.000;0.000;2023-03-20T04:56:47;0.13;;;0.13;;
66707;SDS011;53622;0.000;0.000;2023-03-20T04:59:20;0.55;;;0.30;;
66707;SDS011;53622;0.000;0.000;2023-03-20T05:01:50;0.20;;;0.20;;
66707;SDS011;53622;0.000;0.000;2023-03-20T05:04:21;0.43;;;0.25;;
66707;SDS011;53622;0.000;0.000;2023-03-20T05:06:51;0.30;;;0.20;;
66707;SDS011;53622;0.000;0.000;2023-03-20T05:09:23;0.30;;;0.30;;
66707;SDS011;53622;0.000;0.000;2023-03-20T05:11:54;0.10;;;0.10;;
66707;SDS011;53622;0.000;0.000;2023-03-20T05:14:57;0.30;;;0.30;;
66707;SDS011;53622;0.000;0.000;2023-03-20T05:17:35;0.28;;;0.20;;
66707;SDS011;53622;0.000;0.000;2023-03-20T05:20:25;1.40;;;0.30;;
66707;SDS011;53622;0.000;0.000;2023-03-20T05:23:08;0.75;;;0.20;;
66707;SDS011;53622;0.000;0.000;2023-03-20T05:25:48;0.25;;;0.25;;
66707;SDS011;53622;0.000;0.000;2023-03-20T05:28:23;0.20;;;0.20;;
66707;SDS011;53622;0.000;0.000;2023-03-20T05:31:09;0.30;;;0.30;;
66707;SDS011;53622;0.000;0.000;2023-03-20T05:34:01;0.20;;;0.20;;
66707;SDS011;53622;0.000;0.000;2023-03-20T05:36:53;1.20;;;0.30;;
66707;SDS011;53622;0.000;0.000;2023-03-20T05:39:22;0.30;;;0.30;;
66707;SDS011;53622;0.000;0.000;2023-03-20T05:42:10;0.40;;;0.32;;
66707;SDS011;53622;0.000;0.000;2023-03-20T05:44:48;0.25;;;0.20;;
66707;SDS011;53622;0.000;0.000;2023-03-20T05:47:40;1.20;;;0.40;;
66707;SDS011;53622;0.000;0.000;2023-03-20T05:50:33;0.35;;;0.30;;
66707;SDS011;53622;0.000;0.000;2023-03-20T05:53:12;1.50;;;0.70;;
66707;SDS011;53622;0.000;0.000;2023-03-20T05:55:53;0.30;;;0.28;;
66707;SDS011;53622;0.000;0.000;2023-03-20T05:58:41;0.30;;;0.30;;
66707;SDS011;53622;0.000;0.000;2023-03-20T06:01:33;0.20;;;0.20;;
66707;SDS011;53622;0.000;0.000;2023-03-20T06:04:18;0.20;;;0.20;;
66707;SDS011;53622;0.000;0.000;2023-03-20T06:07:11;0.30;;;0.30;;
66707;SDS011;53622;0.000;0.000;2023-03-20T06:09:44;0.55;;;0.43;;
66707;SDS011;53622;0.000;0.000;2023-03-20T06:12:13;0.73;;;0.30;;
66707;SDS011;53622;0.000;0.000;2023-03-20T06:14:43;0.40;;;0.30;;
66707;SDS011;53622;0.000;0.000;2023-03-20T06:17:12;0.30;;;0.20;;
66707;SDS011;53622;0.000;0.000;2023-03-20T06:19:48;9.68;;;0.57;;
66707;SDS011;53622;0.000;0.000;2023-03-20T06:22:17;0.20;;;0.20;;
66707;SDS011;53622;0.000;0.000;2023-03-20T06:24:47;0.50;;;0.28;;
66707;SDS011;53622;0.000;0.000;2023-03-20T06:27:17;0.63;;;0.20;;
66707;SDS011;53622;0.000;0.000;2023-03-20T06:29:48;2.22;;;0.30;;
66707;SDS011;53622;0.000;0.000;2023-03-20T06:32:24;0.68;;;0.38;;
66707;SDS011;53622;0.000;0.000;2023-03-20T06:34:58;0.30;;;0.30;;
66707;SDS011;53622;0.000;0.000;2023-03-20T06:37:28;0.75;;;0.40;;
66707;SDS011;53622;0.000;0.000;2023-03-20T06:40:06;0.80;;;0.45;;
66707;SDS011;53622;0.000;0.000;2023-03-20T06:42:37;13.90;;;1.80;;
66707;SDS011;53622;0.000;0.000;2023-03-20T06:45:08;6.90;;;0.50;;
66707;SDS011;53622;0.000;0.000;2023-03-20T06:48:13;9.18;;;0.60;;
66707;SDS011;53622;0.000;0.000;2023-03-20T06:50:50;4.63;;;0.60;;
66707;SDS011;53622;0.000;0.000;2023-03-20T06:53:23;3.40;;;0.50;;
66707;SDS011;53622;0.000;0.000;2023-03-20T06:56:03;3.15;;;0.50;;
66707;SDS011;53622;0.000;0.000;2023-03-20T06:58:33;5.50;;;0.55;;
66707;SDS011;53622;0.000;0.000;2023-03-20T07:01:07;5.25;;;0.77;;
66707;SDS011;53622;0.000;0.000;2023-03-20T07:03:37;2.53;;;0.50;;
66707;SDS011;53622;0.000;0.000;2023-03-20T07:06:10;2.38;;;0.50;;
66707;SDS011;53622;0.000;0.000;2023-03-20T07:08:41;2.08;;;0.40;;
66707;SDS011;53622;0.000;0.000;2023-03-20T07:11:11;1.70;;;0.55;;
66707;SDS011;53622;0.000;0.000;2023-03-20T07:13:40;0.70;;;0.40;;
66707;SDS011;53622;0.000;0.000;2023-03-20T07:16:24;0.50;;;0.38;;
66707;SDS011;53622;0.000;0.000;2023-03-20T07:18:54;2.15;;;0.40;;
66707;SDS011;53622;0.000;0.000;2023-03-20T07:21:25;2.03;;;0.38;;
66707;SDS011;53622;0.000;0.000;2023-03-20T07:23:55;2.75;;;0.82;;
66707;SDS011;53622;0.000;0.000;2023-03-20T07:26:24;2.03;;;0.68;;
66707;SDS011;53622;0.000;0.000;2023-03-20T07:28:54;1.13;;;0.32;;
66707;SDS011;53622;0.000;0.000;2023-03-20T07:31:26;1.00;;;0.40;;
66707;SDS011;53622;0.000;0.000;2023-03-20T07:34:13;0.85;;;0.35;;
66707;SDS011;53622;0.000;0.000;2023-03-20T07:36:46;0.80;;;0.43;;
66707;SDS011;53622;0.000;0.000;2023-03-20T07:39:18;2.92;;;0.32;;
66707;SDS011;53622;0.000;0.000;2023-03-20T07:42:17;1.20;;;0.47;;
66707;SDS011;53622;0.000;0.000;2023-03-20T07:44:56;1.70;;;0.50;;
66707;SDS011;53622;0.000;0.000;2023-03-20T07:47:26;1.45;;;0.38;;
66707;SDS011;53622;0.000;0.000;2023-03-20T07:49:56;0.75;;;0.40;;
66707;SDS011;53622;0.000;0.000;2023-03-20T07:52:26;0.60;;;0.38;;
66707;SDS011;53622;0.000;0.000;2023-03-20T07:54:56;0.75;;;0.30;;
66707;SDS011;53622;0.000;0.000;2023-03-20T07:57:25;1.67;;;0.32;;
66707;SDS011;53622;0.000;0.000;2023-03-20T07:59:56;0.85;;;0.30;;
66707;SDS011;53622;0.000;0.000;2023-03-20T08:02:25;1.40;;;0.40;;
66707;SDS011;53622;0.000;0.000;2023-03-20T08:04:56;0.63;;;0.38;;
66707;SDS011;53622;0.000;0.000;2023-03-20T08:07:27;2.40;;;0.77;;
66707;SDS011;53622;0.000;0.000;2023-03-20T08:09:57;1.95;;;0.60;;
66707;SDS011;53622;0.000;0.000;2023-03-20T08:12:27;0.70;;;0.40;;
66707;SDS011;53622;0.000;0.000;2023-03-20T08:14:57;5.68;;;0.60;;
66707;SDS011;53622;0.000;0.000;2023-03-20T08:17:26;1.70;;;0.52;;
66707;SDS011;53622;0.000;0.000;2023-03-20T08:19:55;3.20;;;0.68;;
66707;SDS011;53622;0.000;0.000;2023-03-20T08:22:26;1.80;;;0.70;;
66707;SDS011;53622;0.000;0.000;2023-03-20T08:24:56;3.00;;;0.60;;
66707;SDS011;53622;0.000;0.000;2023-03-20T08:27:25;2.30;;;0.60;;
66707;SDS011;53622;0.000;0.000;2023-03-20T08:29:54;3.72;;;0.80;;
66707;SDS011;53622;0.000;0.000;2023-03-20T08:32:23;4.80;;;0.82;;
66707;SDS011;53622;0.000;0.000;2023-03-20T08:34:53;4.03;;;0.75;;
66707;SDS011;53622;0.000;0.000;2023-03-20T08:37:22;3.17;;;0.63;;
66707;SDS011;53622;0.000;0.000;2023-03-20T08:39:53;3.28;;;0.80;;
66707;SDS011;53622;0.000;0.000;2023-03-20T08:42:22;3.17;;;0.65;;
66707;SDS011;53622;0.000;0.000;2023-03-20T08:44:52;3.20;;;0.57;;
66707;SDS011;53622;0.000;0.000;2023-03-20T08:47:21;3.10;;;0.52;;
66707;SDS011;53622;0.000;0.000;2023-03-20T08:49:50;2.67;;;0.70;;
66707;SDS011;53622;0.000;0.000;2023-03-20T08:52:20;6.18;;;0.73;;
66707;SDS011;53622;0.000;0.000;2023-03-20T08:54:49;2.35;;;0.80;;
66707;SDS011;53622;0.000;0.000;2023-03-20T08:57:20;9.18;;;1.08;;
66707;SDS011;53622;0.000;0.000;2023-03-20T08:59:49;6.32;;;1.42;;
66707;SDS011;53622;0.000;0.000;2023-03-20T09:02:19;7.10;;;1.10;;
66707;SDS011;53622;0.000;0.000;2023-03-20T09:04:48;5.95;;;0.82;;
66707;SDS011;53622;0.000;0.000;2023-03-20T09:07:17;7.68;;;1.00;;
66707;SDS011;53622;0.000;0.000;2023-03-20T09:09:48;17.88;;;2.20;;
66707;SDS011;53622;0.000;0.000;2023-03-20T09:12:17;15.00;;;1.30;;
66707;SDS011;53622;0.000;0.000;2023-03-20T09:14:48;13.07;;;2.10;;
66707;SDS011;53622;0.000;0.000;2023-03-20T09:17:17;12.20;;;1.50;;
66707;SDS011;53622;0.000;0.000;2023-03-20T09:19:46;10.00;;;1.50;;
66707;SDS011;53622;0.000;0.000;2023-03-20T09:22:16;7.25;;;1.33;;
66707;SDS011;53622;0.000;0.000;2023-03-20T09:24:45;11.18;;;2.15;;
66707;SDS011;53622;0.000;0.000;2023-03-20T09:27:14;14.88;;;1.92;;
66707;SDS011;53622;0.000;0.000;2023-03-20T09:29:44;9.40;;;1.65;;
66707;SDS011;53622;0.000;0.000;2023-03-20T09:32:14;13.35;;;1.92;;
66707;SDS011;53622;0.000;0.000;2023-03-20T09:34:44;20.02;;;1.90;;
66707;SDS011;53622;0.000;0.000;2023-03-20T09:37:13;14.45;;;1.95;;
66707;SDS011;53622;0.000;0.000;2023-03-20T09:39:47;14.63;;;2.03;;
66707;SDS011;53622;0.000;0.000;2023-03-20T09:42:24;9.13;;;1.75;;
66707;SDS011;53622;0.000;0.000;2023-03-20T09:45:06;8.00;;;1.63;;
66707;SDS011;53622;0.000;0.000;2023-03-20T09:47:52;6.93;;;1.40;;
66707;SDS011;53622;0.000;0.000;2023-03-20T09:50:30;8.93;;;1.50;;
66707;SDS011;53622;0.000;0.000;2023-03-20T09:53:07;7.22;;;1.77;;
66707;SDS011;53622;0.000;0.000;2023-03-20T09:55:41;8.35;;;1.40;;
66707;SDS011;53622;0.000;0.000;2023-03-20T09:58:12;9.13;;;1.67;;
66707;SDS011;53622;0.000;0.000;2023-03-20T10:00:47;9.55;;;2.03;;
66707;SDS011;53622;0.000;0.000;2023-03-20T10:03:20;9.82;;;1.40;;
66707;SDS011;53622;0.000;0.000;2023-03-20T10:05:55;9.02;;;1.42;;
66707;SDS011;53622;0.000;0.000;2023-03-20T10:08:28;5.85;;;1.52;;
66707;SDS011;53622;0.000;0.000;2023-03-20T10:11:10;4.78;;;1.33;;
66707;SDS011;53622;0.000;0.000;2023-03-20T10:13:57;4.20;;;1.15;;
66707;SDS011;53622;0.000;0.000;2023-03-20T10:16:44;7.00;;;1.55;;
66707;SDS011;53622;0.000;0.000;2023-03-20T10:19:26;7.43;;;1.40;;
66707;SDS011;53622;0.000;0.000;2023-03-20T10:22:00;9.85;;;1.30;;
66707;SDS011;53622;0.000;0.000;2023-03-20T10:24:35;5.70;;;1.45;;
66707;SDS011;53622;0.000;0.000;2023-03-20T10:27:11;5.97;;;1.30;;
66707;SDS011;53622;0.000;0.000;2023-03-20T10:29:48;6.07;;;1.33;;
66707;SDS011;53622;0.000;0.000;2023-03-20T10:32:28;4.93;;;1.38;;
66707;SDS011;53622;0.000;0.000;2023-03-20T10:35:10;4.75;;;1.10;;
66707;SDS011;53622;0.000;0.000;2023-03-20T10:38:00;5.15;;;1.15;;
66707;SDS011;53622;0.000;0.000;2023-03-20T10:40:40;4.28;;;1.50;;
66707;SDS011;53622;0.000;0.000;2023-03-20T10:43:13;3.00;;;1.00;;
66707;SDS011;53622;0.000;0.000;2023-03-20T10:45:46;6.25;;;1.52;;
66707;SDS011;53622;0.000;0.000;2023-03-20T10:48:21;5.22;;;1.30;;
66707;SDS011;53622;0.000;0.000;2023-03-20T10:50:56;4.75;;;1.17;;
66707;SDS011;53622;0.000;0.000;2023-03-20T10:53:29;3.67;;;1.38;;
66707;SDS011;53622;0.000;0.000;2023-03-20T10:56:03;6.05;;;1.55;;
66707;SDS011;53622;0.000;0.000;2023-03-20T10:58:36;6.10;;;1.20;;
66707;SDS011;53622;0.000;0.000;2023-03-20T11:01:08;6.90;;;1.10;;
66707;SDS011;53622;0.000;0.000;2023-03-20T11:03:38;5.43;;;1.15;;
66707;SDS011;53622;0.000;0.000;2023-03-20T11:06:11;1.90;;;1.13;;
66707;SDS011;53622;0.000;0.000;2023-03-20T11:08:47;4.10;;;1.10;;
66707;SDS011;53622;0.000;0.000;2023-03-20T11:11:22;6.07;;;0.88;;
66707;SDS011;53622;0.000;0.000;2023-03-20T11:13:54;6.30;;;1.23;;
66707;SDS011;53622;0.000;0.000;2023-03-20T11:16:29;3.58;;;1.13;;
66707;SDS011;53622;0.000;0.000;2023-03-20T11:19:03;6.22;;;1.27;;
66707;SDS011;53622;0.000;0.000;2023-03-20T11:21:43;5.53;;;1.23;;
66707;SDS011;53622;0.000;0.000;2023-03-20T11:27:05;4.57;;;1.30;;
66707;SDS011;53622;0.000;0.000;2023-03-20T11:29:36;5.65;;;1.90;;
66707;SDS011;53622;0.000;0.000;2023-03-20T11:32:14;2.50;;;1.40;;
66707;SDS011;53622;0.000;0.000;2023-03-20T11:34:49;6.30;;;1.60;;
66707;SDS011;53622;0.000;0.000;2023-03-20T11:37:22;7.53;;;1.50;;
66707;SDS011;53622;0.000;0.000;2023-03-20T11:39:58;2.28;;;1.08;;
66707;SDS011;53622;0.000;0.000;2023-03-20T11:42:28;8.93;;;1.17;;
66707;SDS011;53622;0.000;0.000;2023-03-20T11:44:59;4.05;;;1.23;;
66707;SDS011;53622;0.000;0.000;2023-03-20T11:47:31;9.50;;;1.38;;
66707;SDS011;53622;0.000;0.000;2023-03-20T11:50:03;4.38;;;1.15;;
66707;SDS011;53622;0.000;0.000;2023-03-20T11:52:35;6.57;;;1.08;;
66707;SDS011;53622;0.000;0.000;2023-03-20T11:55:11;4.93;;;1.35;;
66707;SDS011;53622;0.000;0.000;2023-03-20T11:57:54;3.53;;;0.90;;
66707;SDS011;53622;0.000;0.000;2023-03-20T12:00:25;5.40;;;0.90;;
66707;SDS011;53622;0.000;0.000;2023-03-20T12:02:57;4.38;;;1.10;;
66707;SDS011;53622;0.000;0.000;2023-03-20T12:05:29;3.90;;;0.80;;
66707;SDS011;53622;0.000;0.000;2023-03-20T12:08:02;3.17;;;1.05;;
66707;SDS011;53622;0.000;0.000;2023-03-20T12:10:38;2.80;;;1.00;;
66707;SDS011;53622;0.000;0.000;2023-03-20T12:13:10;3.03;;;0.80;;
66707;SDS011;53622;0.000;0.000;2023-03-20T12:15:45;1.83;;;0.77;;
66707;SDS011;53622;0.000;0.000;2023-03-20T12:18:19;3.50;;;1.02;;
66707;SDS011;53622;0.000;0.000;2023-03-20T12:20:57;5.10;;;0.73;;
66707;SDS011;53622;0.000;0.000;2023-03-20T12:23:37;1.58;;;0.90;;
66707;SDS011;53622;0.000;0.000;2023-03-20T12:26:11;3.88;;;0.80;;
66707;SDS011;53622;0.000;0.000;2023-03-20T12:28:44;1.65;;;0.52;;
66707;SDS011;53622;0.000;0.000;2023-03-20T12:31:19;2.70;;;0.80;;
66707;SDS011;53622;0.000;0.000;2023-03-20T12:33:54;4.85;;;0.60;;
66707;SDS011;53622;0.000;0.000;2023-03-20T12:36:29;2.30;;;0.70;;
66707;SDS011;53622;0.000;0.000;2023-03-20T12:39:03;4.65;;;0.70;;
66707;SDS011;53622;0.000;0.000;2023-03-20T12:41:37;5.57;;;1.08;;
66707;SDS011;53622;0.000;0.000;2023-03-20T12:44:15;4.30;;;0.60;;
66707;SDS011;53622;0.000;0.000;2023-03-20T12:47:00;3.67;;;0.57;;
66707;SDS011;53622;0.000;0.000;2023-03-20T12:49:43;1.30;;;0.75;;
66707;SDS011;53622;0.000;0.000;2023-03-20T12:52:24;1.10;;;0.40;;
66707;SDS011;53622;0.000;0.000;2023-03-20T12:55:07;2.25;;;0.60;;
66707;SDS011;53622;0.000;0.000;2023-03-20T12:57:46;3.38;;;0.60;;
66707;SDS011;53622;0.000;0.000;2023-03-20T13:00:23;4.32;;;0.50;;
66707;SDS011;53622;0.000;0.000;2023-03-20T13:03:02;3.38;;;0.50;;
66707;SDS011;53622;0.000;0.000;2023-03-20T13:05:42;1.80;;;0.50;;
66707;SDS011;53622;0.000;0.000;2023-03-20T13:08:18;0.55;;;0.50;;
66707;SDS011;53622;0.000;0.000;2023-03-20T13:11:15;1.73;;;0.70;;
66707;SDS011;53622;0.000;0.000;2023-03-20T13:13:51;1.67;;;0.40;;
66707;SDS011;53622;0.000;0.000;2023-03-20T13:16:27;3.03;;;0.68;;
66707;SDS011;53622;0.000;0.000;2023-03-20T13:19:06;5.25;;;0.60;;
66707;SDS011;53622;0.000;0.000;2023-03-20T13:21:44;3.05;;;0.88;;
66707;SDS011;53622;0.000;0.000;2023-03-20T13:24:25;4.90;;;0.60;;
66707;SDS011;53622;0.000;0.000;2023-03-20T13:27:03;1.77;;;0.60;;
66707;SDS011;53622;0.000;0.000;2023-03-20T13:29:41;3.80;;;0.70;;
66707;SDS011;53622;0.000;0.000;2023-03-20T13:32:20;6.10;;;1.20;;
66707;SDS011;53622;0.000;0.000;2023-03-20T13:35:03;1.58;;;0.63;;
66707;SDS011;53622;0.000;0.000;2023-03-20T13:37:46;5.93;;;1.10;;
66707;SDS011;53622;0.000;0.000;2023-03-20T13:40:19;8.23;;;1.10;;
66707;SDS011;53622;0.000;0.000;2023-03-20T13:42:53;4.75;;;0.90;;
66707;SDS011;53622;0.000;0.000;2023-03-20T13:45:27;7.13;;;1.10;;
66707;SDS011;53622;0.000;0.000;2023-03-20T13:48:02;3.92;;;0.70;;
66707;SDS011;53622;0.000;0.000;2023-03-20T13:50:41;2.30;;;0.80;;
66707;SDS011;53622;0.000;0.000;2023-03-20T13:53:22;2.45;;;1.00;;
66707;SDS011;53622;0.000;0.000;2023-03-20T13:55:59;3.28;;;0.98;;
66707;SDS011;53622;0.000;0.000;2023-03-20T13:58:38;3.55;;;1.00;;
66707;SDS011;53622;0.000;0.000;2023-03-20T14:01:28;3.63;;;1.00;;
66707;SDS011;53622;0.000;0.000;2023-03-20T14:04:07;2.72;;;1.02;;
66707;SDS011;53622;0.000;0.000;2023-03-20T14:06:47;4.07;;;0.85;;
66707;SDS011;53622;0.000;0.000;2023-03-20T14:09:24;2.67;;;0.90;;
66707;SDS011;53622;0.000;0.000;2023-03-20T14:11:56;1.35;;;0.77;;
66707;SDS011;53622;0.000;0.000;2023-03-20T14:14:31;1.50;;;0.85;;
66707;SDS011;53622;0.000;0.000;2023-03-20T14:17:07;1.58;;;0.70;;
66707;SDS011;53622;0.000;0.000;2023-03-20T14:19:43;1.73;;;0.88;;
66707;SDS011;53622;0.000;0.000;2023-03-20T14:22:14;2.30;;;0.85;;
66707;SDS011;53622;0.000;0.000;2023-03-20T14:24:52;1.20;;;0.82;;
66707;SDS011;53622;0.000;0.000;2023-03-20T14:27:25;2.35;;;0.80;;
66707;SDS011;53622;0.000;0.000;2023-03-20T14:33:23;2.53;;;1.00;;
66707;SDS011;53622;0.000;0.000;2023-03-20T14:38:40;4.05;;;0.80;;
66707;SDS011;53622;0.000;0.000;2023-03-20T14:41:22;3.05;;;0.95;;
66707;SDS011;53622;0.000;0.000;2023-03-20T14:43:59;1.60;;;0.82;;
66707;SDS011;53622;0.000;0.000;2023-03-20T14:46:45;1.35;;;0.70;;
66707;SDS011;53622;0.000;0.000;2023-03-20T14:49:25;2.25;;;0.70;;
66707;SDS011;53622;0.000;0.000;2023-03-20T14:52:11;1.35;;;0.70;;
66707;SDS011;53622;0.000;0.000;2023-03-20T14:54:51;1.02;;;0.85;;
66707;SDS011;53622;0.000;0.000;2023-03-20T14:57:25;3.72;;;1.05;;
66707;SDS011;53622;0.000;0.000;2023-03-20T15:00:19;1.40;;;0.82;;
66707;SDS011;53622;0.000;0.000;2023-03-20T15:02:52;1.33;;;0.90;;
66707;SDS011;53622;0.000;0.000;2023-03-20T15:05:32;0.93;;;0.80;;
66707;SDS011;53622;0.000;0.000;2023-03-20T15:08:05;1.40;;;0.77;;
66707;SDS011;53622;0.000;0.000;2023-03-20T15:10:43;0.77;;;0.70;;
66707;SDS011;53622;0.000;0.000;2023-03-20T15:13:14;1.33;;;0.70;;
66707;SDS011;53622;0.000;0.000;2023-03-20T15:15:51;2.35;;;0.80;;
66707;SDS011;53622;0.000;0.000;2023-03-20T15:18:24;1.73;;;0.85;;
66707;SDS011;53622;0.000;0.000;2023-03-20T15:20:54;2.08;;;0.90;;
66707;SDS011;53622;0.000;0.000;2023-03-20T15:23:24;2.33;;;0.68;;
66707;SDS011;53622;0.000;0.000;2023-03-20T15:25:54;0.95;;;0.63;;
66707;SDS011;53622;0.000;0.000;2023-03-20T15:28:23;0.80;;;0.80;;
66707;SDS011;53622;0.000;0.000;2023-03-20T15:30:55;2.53;;;0.70;;
66707;SDS011;53622;0.000;0.000;2023-03-20T15:33:30;0.70;;;0.70;;
66707;SDS011;53622;0.000;0.000;2023-03-20T15:36:08;1.75;;;0.75;;
66707;SDS011;53622;0.000;0.000;2023-03-20T15:38:39;0.82;;;0.82;;
66707;SDS011;53622;0.000;0.000;2023-03-20T15:41:21;1.83;;;1.08;;
66707;SDS011;53622;0.000;0.000;2023-03-20T15:43:53;1.25;;;0.75;;
66707;SDS011;53622;0.000;0.000;2023-03-20T15:46:28;1.10;;;1.00;;
66707;SDS011;53622;0.000;0.000;2023-03-20T15:49:00;1.77;;;0.68;;
66707;SDS011;53622;0.000;0.000;2023-03-20T15:51:35;4.05;;;0.90;;
66707;SDS011;53622;0.000;0.000;2023-03-20T15:54:04;0.82;;;0.70;;
66707;SDS011;53622;0.000;0.000;2023-03-20T15:56:34;1.50;;;0.60;;
66707;SDS011;53622;0.000;0.000;2023-03-20T15:59:20;2.33;;;0.70;;
66707;SDS011;53622;0.000;0.000;2023-03-20T16:01:52;1.25;;;0.75;;
66707;SDS011;53622;0.000;0.000;2023-03-20T16:04:26;0.85;;;0.80;;
66707;SDS011;53622;0.000;0.000;2023-03-20T16:06:56;1.63;;;1.00;;